createdAt,value
2023-04-03T00:01:36.144Z,1.42
2023-04-03T00:04:04.202Z,1.10
2023-04-03T00:06:32.312Z,1.00
2023-04-03T00:09:00.710Z,1.25
2023-04-03T00:11:28.853Z,1.67
2023-04-03T00:13:56.864Z,1.33
2023-04-03T00:16:24.929Z,1.40
2023-04-03T00:18:54.447Z,1.27
2023-04-03T00:21:22.478Z,1.02
2023-04-03T00:23:51.347Z,1.27
2023-04-03T00:26:19.422Z,1.13
2023-04-03T00:28:47.475Z,1.40
2023-04-03T00:31:17.188Z,1.80
2023-04-03T00:33:45.416Z,1.38
2023-04-03T00:36:15.586Z,1.00
2023-04-03T00:38:43.846Z,0.90
2023-04-03T00:41:11.934Z,1.35
2023-04-03T00:43:40.049Z,1.13
2023-04-03T00:46:08.179Z,0.82
2023-04-03T00:48:42.892Z,1.27
2023-04-03T00:51:15.555Z,2.20
2023-04-03T00:53:49.434Z,1.10
2023-04-03T00:56:22.699Z,1.55
2023-04-03T00:58:57.229Z,1.83
2023-04-03T01:01:29.047Z,1.20
2023-04-03T01:03:57.793Z,1.35
2023-04-03T01:06:32.175Z,1.77
2023-04-03T01:09:01.628Z,2.00
2023-04-03T01:11:29.877Z,1.73
2023-04-03T01:13:57.993Z,1.85
2023-04-03T01:16:26.328Z,1.40
2023-04-03T01:18:54.577Z,1.60
2023-04-03T01:22:15.522Z,1.60
2023-04-03T01:24:43.583Z,1.58
2023-04-03T01:27:13.360Z,2.00
2023-04-03T01:29:44.458Z,1.90
2023-04-03T01:32:14.497Z,1.40
2023-04-03T01:34:42.590Z,1.50
2023-04-03T01:37:10.812Z,1.52
2023-04-03T01:39:38.868Z,1.58
2023-04-03T01:42:07.469Z,1.80
2023-04-03T01:44:36.296Z,1.60
2023-04-03T01:47:07.491Z,1.88
2023-04-03T01:49:36.939Z,1.58
2023-04-03T01:52:05.131Z,1.25
2023-04-03T01:54:33.866Z,1.40
2023-04-03T01:57:01.957Z,1.70
2023-04-03T01:59:30.144Z,1.77
2023-04-03T02:01:58.174Z,2.00
2023-04-03T02:04:26.242Z,1.30
2023-04-03T02:06:55.849Z,1.50
2023-04-03T02:09:24.147Z,1.77
2023-04-03T02:11:52.198Z,1.70
2023-04-03T02:14:20.568Z,2.80
2023-04-03T02:16:48.713Z,2.20
2023-04-03T02:19:17.101Z,2.40
2023-04-03T02:21:45.531Z,2.55
2023-04-03T02:24:14.903Z,2.25
2023-04-03T02:26:43.074Z,2.03
2023-04-03T02:29:11.179Z,1.67
2023-04-03T02:31:39.217Z,2.63
2023-04-03T02:34:07.609Z,2.22
2023-04-03T02:36:35.798Z,2.17
2023-04-03T02:39:04.534Z,2.17
2023-04-03T02:41:36.069Z,2.65
2023-04-03T02:44:05.692Z,2.13
2023-04-03T02:46:34.772Z,2.53
2023-04-03T02:49:02.934Z,2.88
2023-04-03T02:51:31.182Z,2.40
2023-04-03T02:53:59.245Z,2.28
2023-04-03T02:56:27.803Z,3.13
2023-04-03T02:58:57.396Z,3.15
2023-04-03T03:01:25.691Z,3.30
2023-04-03T03:03:53.773Z,2.67
2023-04-03T03:06:21.904Z,3.30
2023-04-03T03:08:50.020Z,2.45
2023-04-03T03:11:18.274Z,2.30
2023-04-03T03:13:46.429Z,3.50
2023-04-03T03:16:16.100Z,3.80
2023-04-03T03:18:44.193Z,2.88
2023-04-03T03:21:12.606Z,2.78
2023-04-03T03:23:41.131Z,3.00
2023-04-03T03:26:12.416Z,1.90
2023-04-03T03:28:42.394Z,2.95
2023-04-03T03:31:11.663Z,2.38
2023-04-03T03:33:41.101Z,2.65
2023-04-03T03:36:09.840Z,2.92
2023-04-03T03:38:37.877Z,2.85
2023-04-03T03:41:05.992Z,3.55
2023-04-03T03:43:34.140Z,3.63
2023-04-03T03:46:02.232Z,3.42
2023-04-03T03:48:30.529Z,3.85
2023-04-03T03:50:59.908Z,3.78
2023-04-03T03:53:28.073Z,3.55
2023-04-03T03:55:56.095Z,3.30
2023-04-03T03:58:24.069Z,2.65
2023-04-03T04:00:52.171Z,4.20
2023-04-03T04:03:20.487Z,3.28
2023-04-03T04:05:48.770Z,3.50
2023-04-03T04:08:18.471Z,3.20
2023-04-03T04:10:46.654Z,4.03
2023-04-03T04:13:14.715Z,3.22
2023-04-03T04:15:42.737Z,3.30
2023-04-03T04:18:11.107Z,3.58
2023-04-03T04:20:39.118Z,2.50
2023-04-03T04:23:07.323Z,3.10
2023-04-03T04:25:36.822Z,3.47
2023-04-03T04:28:05.060Z,3.15
2023-04-03T04:30:33.073Z,2.75
2023-04-03T04:33:01.199Z,2.67
2023-04-03T04:35:29.376Z,2.10
2023-04-03T04:37:57.579Z,3.53
2023-04-03T04:40:25.694Z,3.10
2023-04-03T04:42:55.364Z,3.40
2023-04-03T04:45:23.544Z,2.78
2023-04-03T04:47:53.634Z,3.40
2023-04-03T04:50:22.157Z,2.92
2023-04-03T04:52:50.185Z,3.20
2023-04-03T04:55:18.598Z,2.95
2023-04-03T04:57:46.583Z,2.55
2023-04-03T05:00:17.897Z,3.20
2023-04-03T05:02:45.998Z,2.17
2023-04-03T05:05:14.240Z,2.08
2023-04-03T05:07:42.434Z,2.15
2023-04-03T05:10:12.254Z,2.72
2023-04-03T05:12:40.569Z,3.33
2023-04-03T05:15:10.637Z,1.80
2023-04-03T05:17:40.445Z,3.38
2023-04-03T05:20:10.120Z,2.72
2023-04-03T05:22:38.339Z,2.80
2023-04-03T05:25:08.115Z,2.60
2023-04-03T05:27:36.135Z,2.10
2023-04-03T05:30:05.372Z,1.98
2023-04-03T05:32:33.422Z,2.40
2023-04-03T05:35:02.928Z,1.63
2023-04-03T05:37:31.124Z,2.35
2023-04-03T05:39:59.260Z,2.33
2023-04-03T05:42:27.667Z,2.35
2023-04-03T05:44:55.872Z,2.78
2023-04-03T05:47:24.557Z,2.05
2023-04-03T05:49:52.718Z,1.83
2023-04-03T05:52:28.417Z,2.20
2023-04-03T05:54:56.731Z,2.55
2023-04-03T05:57:25.887Z,1.42
2023-04-03T05:59:54.130Z,1.55
2023-04-03T06:02:25.490Z,1.42
2023-04-03T06:04:54.043Z,1.67
2023-04-03T06:07:29.236Z,2.65
2023-04-03T06:09:58.854Z,1.50
2023-04-03T06:12:27.037Z,1.00
2023-04-03T06:14:55.052Z,1.20
2023-04-03T06:17:23.539Z,1.10
2023-04-03T06:19:51.632Z,0.90
2023-04-03T06:22:19.684Z,1.45
2023-04-03T06:24:49.218Z,1.13
2023-04-03T06:27:17.763Z,1.08
2023-04-03T06:29:46.424Z,1.27
2023-04-03T06:32:14.575Z,0.93
2023-04-03T06:34:42.740Z,1.15
2023-04-03T06:37:17.323Z,1.00
2023-04-03T06:39:46.183Z,0.85
2023-04-03T06:42:15.813Z,1.13
2023-04-03T06:44:43.851Z,1.33
2023-04-03T06:47:13.962Z,0.70
2023-04-03T06:49:42.290Z,0.85
2023-04-03T06:52:13.038Z,1.05
2023-04-03T06:54:42.456Z,0.90
2023-04-03T06:57:10.661Z,0.98
2023-04-03T06:59:41.154Z,1.90
2023-04-03T07:02:12.113Z,1.33
2023-04-03T07:04:40.263Z,1.10
2023-04-03T07:07:08.539Z,1.00
2023-04-03T07:09:37.196Z,1.10
2023-04-03T07:12:05.595Z,0.80
2023-04-03T07:14:33.626Z,0.73
2023-04-03T07:17:03.036Z,1.30
2023-04-03T07:19:32.233Z,0.93
2023-04-03T07:22:00.317Z,0.88
2023-04-03T07:24:28.434Z,1.10
2023-04-03T07:26:56.503Z,0.90
2023-04-03T07:29:24.832Z,0.73
2023-04-03T07:31:53.586Z,0.80
2023-04-03T07:34:23.737Z,0.93
2023-04-03T07:36:51.787Z,1.15
2023-04-03T07:39:19.878Z,1.10
2023-04-03T07:41:48.453Z,0.75
2023-04-03T07:44:16.652Z,0.50
2023-04-03T07:46:44.763Z,0.60
2023-04-03T07:49:12.766Z,0.90
2023-04-03T07:51:42.936Z,1.42
2023-04-03T07:54:11.895Z,0.90
2023-04-03T07:56:40.478Z,0.75
2023-04-03T07:59:08.997Z,1.50
2023-04-03T08:01:37.187Z,1.58
2023-04-03T08:04:05.617Z,1.08
2023-04-03T08:06:45.741Z,0.80
2023-04-03T08:09:17.182Z,1.50
2023-04-03T08:11:46.868Z,1.15
2023-04-03T08:14:19.427Z,0.90
2023-04-03T08:16:50.297Z,1.13
2023-04-03T08:19:26.095Z,0.82
2023-04-03T08:21:55.874Z,0.90
2023-04-03T08:24:25.643Z,0.85
2023-04-03T08:26:53.890Z,0.50
2023-04-03T08:29:22.254Z,1.15
2023-04-03T08:31:51.409Z,0.90
2023-04-03T08:34:20.424Z,1.13
2023-04-03T08:36:48.939Z,0.95
2023-04-03T08:39:17.054Z,0.70
2023-04-03T08:41:48.846Z,0.70
2023-04-03T08:44:27.384Z,1.58
2023-04-03T08:47:13.570Z,0.93
2023-04-03T08:49:48.636Z,0.95
2023-04-03T08:52:21.961Z,0.90
2023-04-03T08:54:55.687Z,1.10
2023-04-03T08:57:33.207Z,1.30
2023-04-03T09:00:08.813Z,1.02
2023-04-03T09:02:47.311Z,1.02
2023-04-03T09:05:20.190Z,0.93
2023-04-03T09:07:56.581Z,0.75
2023-04-03T09:10:32.317Z,1.00
2023-04-03T09:13:09.732Z,0.82
2023-04-03T09:15:39.407Z,0.85
2023-04-03T09:18:17.707Z,0.85
2023-04-03T09:20:59.592Z,0.52
2023-04-03T09:23:36.153Z,0.90
2023-04-03T09:26:10.729Z,1.17
2023-04-03T09:28:50.038Z,0.75
2023-04-03T09:31:24.710Z,0.70
2023-04-03T09:33:58.892Z,0.43
2023-04-03T09:36:45.823Z,0.63
2023-04-03T09:39:18.023Z,1.40
2023-04-03T09:42:02.236Z,0.68
2023-04-03T09:44:36.218Z,1.15
2023-04-03T09:47:25.844Z,1.25
2023-04-03T09:50:19.364Z,0.40
2023-04-03T09:52:50.119Z,0.70
2023-04-03T09:55:22.027Z,0.85
2023-04-03T09:57:53.582Z,0.60
2023-04-03T10:00:33.255Z,0.82
2023-04-03T10:03:02.226Z,0.70
2023-04-03T10:05:36.230Z,1.00
2023-04-03T10:08:25.200Z,0.50
2023-04-03T10:11:17.204Z,0.40
2023-04-03T10:14:00.562Z,0.93
2023-04-03T10:16:40.333Z,0.93
2023-04-03T10:19:34.597Z,0.80
2023-04-03T10:22:10.942Z,1.02
2023-04-03T10:24:54.131Z,1.00
2023-04-03T10:27:38.092Z,1.05
2023-04-03T10:30:23.179Z,0.93
2023-04-03T10:33:11.357Z,0.65
2023-04-03T10:35:53.072Z,0.70
2023-04-03T10:38:33.917Z,0.80
2023-04-03T10:41:15.808Z,0.63
2023-04-03T10:43:57.021Z,0.70
2023-04-03T10:46:38.933Z,1.45
2023-04-03T10:49:28.160Z,0.90
2023-04-03T10:52:08.648Z,1.25
2023-04-03T10:54:42.413Z,1.00
2023-04-03T10:57:13.969Z,0.60
2023-04-03T10:59:48.522Z,0.82
2023-04-03T11:02:30.859Z,1.45
2023-04-03T11:05:10.381Z,0.77
2023-04-03T11:07:43.113Z,1.35
2023-04-03T11:10:20.503Z,0.70
2023-04-03T11:12:55.046Z,0.50
2023-04-03T11:15:26.644Z,1.00
2023-04-03T11:18:04.584Z,0.70
2023-04-03T11:20:35.597Z,0.73
2023-04-03T11:23:07.702Z,1.10
2023-04-03T11:25:41.864Z,1.05
2023-04-03T11:28:15.893Z,1.10
2023-04-03T11:30:55.021Z,1.30
2023-04-03T11:33:39.562Z,0.70
2023-04-03T11:38:58.790Z,1.05
2023-04-03T11:41:31.644Z,0.93
2023-04-03T11:44:03.290Z,1.00
2023-04-03T11:46:57.188Z,1.08
2023-04-03T11:50:00.584Z,0.98
2023-04-03T11:53:01.334Z,1.65
2023-04-03T11:55:56.864Z,0.93
2023-04-03T11:58:28.324Z,0.82
2023-04-03T12:01:01.375Z,0.98
2023-04-03T12:04:10.346Z,0.50
2023-04-03T12:07:16.655Z,0.50
2023-04-03T12:10:31.527Z,1.23
2023-04-03T12:13:05.111Z,0.65
2023-04-03T12:16:01.021Z,1.00
2023-04-03T12:18:59.865Z,1.75
2023-04-03T12:22:12.879Z,1.40
2023-04-03T12:24:43.814Z,1.20
2023-04-03T12:27:35.714Z,2.40
2023-04-03T12:30:16.883Z,2.78
2023-04-03T12:33:16.110Z,4.00
2023-04-03T12:36:01.971Z,2.97
2023-04-03T12:39:00.237Z,1.83
2023-04-03T12:41:41.405Z,2.33
2023-04-03T12:44:39.641Z,1.73
2023-04-03T12:47:29.867Z,1.83
2023-04-03T12:50:01.253Z,1.00
2023-04-03T12:52:41.893Z,1.88
2023-04-03T12:55:18.219Z,0.90
2023-04-03T12:57:47.260Z,1.55
2023-04-03T13:00:33.571Z,1.25
2023-04-03T13:03:06.300Z,1.27
2023-04-03T13:05:37.521Z,0.93
2023-04-03T13:08:13.565Z,1.00
2023-04-03T13:11:00.341Z,1.40
2023-04-03T13:13:29.277Z,3.05
2023-04-03T13:15:59.944Z,2.10
2023-04-03T13:18:33.256Z,2.75
2023-04-03T13:21:07.696Z,1.23
2023-04-03T13:23:41.572Z,2.53
2023-04-03T13:26:10.777Z,0.88
2023-04-03T13:28:42.426Z,0.57
2023-04-03T13:31:35.548Z,0.52
2023-04-03T13:34:13.507Z,0.95
2023-04-03T13:36:46.964Z,1.48
2023-04-03T13:39:27.444Z,0.75
2023-04-03T13:41:58.688Z,1.02
2023-04-03T13:44:36.482Z,0.80
2023-04-03T13:47:22.065Z,0.70
2023-04-03T13:50:05.665Z,0.90
2023-04-03T13:52:41.949Z,0.70
2023-04-03T13:55:26.520Z,0.47
2023-04-03T13:57:59.481Z,0.85
2023-04-03T14:00:40.609Z,1.08
2023-04-03T14:03:25.606Z,0.65
2023-04-03T14:05:54.220Z,1.13
2023-04-03T14:08:32.365Z,0.65
2023-04-03T14:11:08.908Z,0.75
2023-04-03T14:13:37.122Z,0.43
2023-04-03T14:16:15.519Z,0.60
2023-04-03T14:18:46.751Z,1.08
2023-04-03T14:21:17.866Z,0.80
2023-04-03T14:23:47.142Z,1.35
2023-04-03T14:26:18.777Z,1.08
2023-04-03T14:28:49.350Z,1.52
2023-04-03T14:31:18.735Z,0.93
2023-04-03T14:33:48.566Z,1.33
2023-04-03T14:36:19.123Z,0.93
2023-04-03T14:38:48.777Z,0.55
2023-04-03T14:41:19.868Z,1.15
2023-04-03T14:43:50.010Z,0.68
2023-04-03T14:46:26.358Z,1.10
2023-04-03T14:48:57.232Z,1.20
2023-04-03T14:51:26.280Z,1.02
2023-04-03T14:53:56.949Z,1.20
2023-04-03T14:56:29.121Z,1.17
2023-04-03T14:59:03.165Z,1.30
2023-04-03T15:01:32.755Z,1.15
2023-04-03T15:04:02.404Z,1.38
2023-04-03T15:06:38.072Z,1.88
2023-04-03T15:09:06.370Z,0.60
2023-04-03T15:11:34.643Z,1.45
2023-04-03T15:14:05.775Z,0.80
2023-04-03T15:16:34.041Z,0.60
2023-04-03T15:19:03.944Z,0.70
2023-04-03T15:21:32.191Z,0.57
2023-04-03T15:24:02.112Z,0.68
2023-04-03T15:26:31.172Z,1.13
2023-04-03T15:28:59.531Z,0.88
2023-04-03T15:31:27.973Z,0.60
2023-04-03T15:33:56.177Z,0.50
2023-04-03T15:36:33.906Z,0.80
2023-04-03T15:39:02.948Z,0.55
2023-04-03T15:41:31.238Z,0.50
2023-04-03T15:44:00.610Z,0.47
2023-04-03T15:46:29.088Z,0.60
2023-04-03T15:48:57.669Z,1.02
2023-04-03T15:51:27.326Z,0.55
2023-04-03T15:53:55.487Z,2.60
2023-04-03T15:56:23.761Z,1.23
2023-04-03T15:58:52.108Z,1.00
2023-04-03T16:01:20.702Z,0.90
2023-04-03T16:03:49.145Z,0.68
2023-04-03T16:06:19.545Z,0.70
2023-04-03T16:08:51.621Z,0.93
2023-04-03T16:11:19.881Z,1.20
2023-04-03T16:13:47.991Z,0.43
2023-04-03T16:16:16.495Z,0.88
2023-04-03T16:18:44.944Z,1.00
2023-04-03T16:21:14.867Z,0.70
2023-04-03T16:23:43.746Z,0.77
2023-04-03T16:26:13.541Z,1.23
2023-04-03T16:28:41.770Z,0.55
2023-04-03T16:31:10.679Z,0.90
2023-04-03T16:33:39.243Z,0.93
2023-04-03T16:36:08.370Z,0.50
2023-04-03T16:38:37.974Z,0.60
2023-04-03T16:41:06.603Z,0.70
2023-04-03T16:43:36.753Z,1.00
2023-04-03T16:46:05.597Z,0.55
2023-04-03T16:48:34.158Z,1.42
2023-04-03T16:51:02.831Z,0.43
2023-04-03T16:53:32.434Z,0.80
2023-04-03T16:56:01.196Z,0.77
2023-04-03T16:58:29.743Z,0.60
2023-04-03T17:00:59.348Z,0.57
2023-04-03T17:03:29.027Z,0.85
2023-04-03T17:05:58.720Z,0.80
2023-04-03T17:08:27.342Z,1.77
2023-04-03T17:10:56.112Z,0.90
2023-04-03T17:13:24.415Z,2.83
2023-04-03T17:15:53.213Z,1.75
2023-04-03T17:18:23.729Z,1.67
2023-04-03T17:20:52.035Z,1.17
2023-04-03T17:23:20.429Z,1.15
2023-04-03T17:25:48.827Z,1.00
2023-04-03T17:28:16.981Z,1.50
2023-04-03T17:30:45.017Z,2.65
2023-04-03T17:33:13.085Z,1.10
2023-04-03T17:35:42.749Z,1.10
2023-04-03T17:38:10.990Z,0.68
2023-04-03T17:40:39.181Z,1.10
2023-04-03T17:43:07.962Z,0.95
2023-04-03T17:45:39.553Z,0.60
2023-04-03T17:48:08.229Z,1.38
2023-04-03T17:50:38.639Z,1.00
2023-04-03T17:53:08.312Z,1.00
2023-04-03T17:55:38.859Z,1.35
2023-04-03T17:58:07.437Z,2.40
2023-04-03T18:00:35.549Z,2.05
2023-04-03T18:03:03.921Z,2.55
2023-04-03T18:05:32.971Z,2.50
2023-04-03T18:08:03.069Z,5.45
2023-04-03T18:10:32.961Z,3.20
2023-04-03T18:13:01.463Z,7.13
2023-04-03T18:18:10.127Z,4.60
2023-04-03T18:20:38.382Z,3.20
2023-04-03T18:23:07.044Z,2.03
2023-04-03T18:25:39.578Z,1.10
2023-04-03T18:28:08.536Z,1.27
2023-04-03T18:30:37.661Z,1.20
2023-04-03T18:33:05.984Z,1.50
2023-04-03T18:35:34.353Z,1.67
2023-04-03T18:38:03.095Z,1.05
2023-04-03T18:40:33.984Z,1.20
2023-04-03T18:43:05.410Z,1.90
2023-04-03T18:45:34.520Z,4.57
2023-04-03T18:48:04.740Z,2.20
2023-04-03T18:50:33.266Z,1.48
2023-04-03T18:53:01.664Z,1.33
2023-04-03T18:55:31.097Z,1.95
2023-04-03T18:57:59.561Z,1.20
2023-04-03T19:00:29.479Z,1.58
2023-04-03T19:02:58.747Z,1.17
2023-04-03T19:05:27.303Z,2.00
2023-04-03T19:07:59.806Z,1.85
2023-04-03T19:10:28.022Z,1.63
2023-04-03T19:12:57.693Z,1.50
2023-04-03T19:15:28.394Z,1.88
2023-04-03T19:17:56.878Z,2.03
2023-04-03T19:20:25.533Z,1.70
2023-04-03T19:22:55.298Z,1.70
2023-04-03T19:25:23.622Z,1.85
2023-04-03T19:27:51.979Z,1.52
2023-04-03T19:30:20.228Z,2.10
2023-04-03T19:32:51.952Z,1.60
2023-04-03T19:35:22.580Z,2.10
2023-04-03T19:37:51.238Z,2.00
2023-04-03T19:40:20.548Z,1.45
2023-04-03T19:42:48.860Z,1.77
2023-04-03T19:45:18.144Z,3.90
2023-04-03T19:47:47.182Z,3.60
2023-04-03T19:50:16.801Z,5.72
2023-04-03T19:52:45.773Z,5.45
2023-04-03T19:55:14.841Z,3.72
2023-04-03T19:57:43.071Z,4.70
2023-04-03T20:00:13.703Z,4.50
2023-04-03T20:02:41.951Z,3.67
2023-04-03T20:05:11.668Z,2.90
2023-04-03T20:07:41.654Z,2.10
2023-04-03T20:10:12.077Z,1.77
2023-04-03T20:12:40.217Z,2.42
2023-04-03T20:15:10.441Z,2.28
2023-04-03T20:17:39.118Z,2.63
2023-04-03T20:20:09.538Z,1.67
2023-04-03T20:22:40.882Z,3.13
2023-04-03T20:25:17.477Z,2.47
2023-04-03T20:27:54.482Z,2.53
2023-04-03T20:30:22.618Z,2.53
2023-04-03T20:32:50.799Z,2.78
2023-04-03T20:35:22.130Z,2.17
2023-04-03T20:37:51.886Z,2.10
2023-04-03T20:40:20.082Z,2.08
2023-04-03T20:42:48.502Z,2.08
2023-04-03T20:45:16.962Z,1.60
2023-04-03T20:47:45.819Z,2.22
2023-04-03T20:50:14.036Z,1.98
2023-04-03T20:52:42.504Z,1.67
2023-04-03T20:55:12.897Z,3.22
2023-04-03T20:57:42.695Z,2.05
2023-04-03T21:00:13.791Z,1.83
2023-04-03T21:02:42.683Z,1.80
2023-04-03T21:05:11.918Z,1.55
2023-04-03T21:08:36.179Z,1.90
2023-04-03T21:12:00.311Z,2.78
2023-04-03T21:15:24.400Z,1.80
2023-04-03T21:18:45.384Z,1.63
2023-04-03T21:21:23.209Z,1.55
2023-04-03T21:23:53.291Z,2.65
2023-04-03T21:26:23.480Z,1.15
2023-04-03T21:28:53.199Z,2.00
2023-04-03T21:31:22.764Z,2.15
2023-04-03T21:33:52.551Z,1.23
2023-04-03T21:36:20.688Z,1.85
2023-04-03T21:38:50.010Z,0.95
2023-04-03T21:41:18.187Z,1.73
2023-04-03T21:43:47.972Z,1.55
2023-04-03T21:46:16.368Z,1.77
2023-04-03T21:48:47.000Z,1.65
2023-04-03T21:51:17.378Z,1.50
2023-04-03T21:53:49.659Z,1.27
2023-04-03T21:56:18.092Z,1.35
2023-04-03T21:58:46.406Z,1.35
2023-04-03T22:01:16.601Z,1.63
2023-04-03T22:03:46.767Z,1.40
2023-04-03T22:06:17.776Z,1.02
2023-04-03T22:08:46.173Z,0.98
2023-04-03T22:11:16.541Z,0.75
2023-04-03T22:13:46.737Z,0.73
2023-04-03T22:16:14.950Z,0.90
2023-04-03T22:18:43.322Z,0.70
2023-04-03T22:21:11.455Z,0.80
2023-04-03T22:23:41.232Z,1.48
2023-04-03T22:26:12.413Z,0.93
2023-04-03T22:28:43.262Z,3.17
2023-04-03T22:31:14.314Z,1.67
2023-04-03T22:33:44.295Z,1.15
2023-04-03T22:36:14.933Z,1.00
2023-04-03T22:38:44.898Z,0.75
2023-04-03T22:41:13.494Z,0.63
2023-04-03T22:43:42.583Z,0.93
2023-04-03T22:46:11.390Z,0.60
2023-04-03T22:48:43.450Z,0.60
2023-04-03T22:51:12.271Z,0.60
2023-04-03T22:53:40.763Z,0.68
2023-04-03T22:56:11.079Z,1.05
2023-04-03T22:58:39.787Z,0.90
2023-04-03T23:01:13.984Z,1.00
2023-04-03T23:03:47.251Z,0.82
2023-04-03T23:06:15.806Z,0.65
2023-04-03T23:08:43.971Z,1.17
2023-04-03T23:11:13.846Z,0.68
2023-04-03T23:13:43.933Z,1.00
2023-04-03T23:16:12.389Z,0.77
2023-04-03T23:18:40.652Z,1.10
2023-04-03T23:21:09.591Z,1.23
2023-04-03T23:23:37.975Z,1.13
2023-04-03T23:26:06.454Z,0.75
2023-04-03T23:28:36.869Z,0.98
2023-04-03T23:31:06.737Z,1.13
2023-04-03T23:33:35.652Z,0.85
2023-04-03T23:36:09.357Z,0.88
2023-04-03T23:38:38.322Z,1.58
2023-04-03T23:41:07.143Z,0.98
2023-04-03T23:43:37.065Z,0.77
2023-04-03T23:46:05.464Z,1.48
2023-04-03T23:48:33.656Z,0.65
2023-04-03T23:51:01.928Z,1.25
2023-04-03T23:53:30.348Z,0.98
2023-04-03T23:55:58.635Z,1.55
2023-04-03T23:58:26.835Z,0.77
